sensor_id;sensor_type;location;lat;lon;timestamp;temperature;humidity
14210;DHT22;7188;56.070;12.698;2022-10-22T00:00:17;11.10;99.90
14210;DHT22;7188;56.070;12.698;2022-10-22T00:02:43;11.10;99.90
14210;DHT22;7188;56.070;12.698;2022-10-22T00:05:09;11.10;99.90
14210;DHT22;7188;56.070;12.698;2022-10-22T00:07:35;11.10;99.90
14210;DHT22;7188;56.070;12.698;2022-10-22T00:10:03;11.10;99.90
14210;DHT22;7188;56.070;12.698;2022-10-22T00:12:29;11.10;99.90
14210;DHT22;7188;56.070;12.698;2022-10-22T00:14:55;11.10;99.90
14210;DHT22;7188;56.070;12.698;2022-10-22T00:17:21;11.10;99.90
14210;DHT22;7188;56.070;12.698;2022-10-22T00:19:46;11.10;99.90
14210;DHT22;7188;56.070;12.698;2022-10-22T00:22:12;11.20;99.90
14210;DHT22;7188;56.070;12.698;2022-10-22T00:24:38;11.10;99.90
14210;DHT22;7188;56.070;12.698;2022-10-22T00:27:06;11.10;99.90
14210;DHT22;7188;56.070;12.698;2022-10-22T00:29:32;11.10;99.90
14210;DHT22;7188;56.070;12.698;2022-10-22T00:31:58;11.10;99.90
14210;DHT22;7188;56.070;12.698;2022-10-22T00:34:24;11.20;99.90
14210;DHT22;7188;56.070;12.698;2022-10-22T00:36:51;11.20;99.90
14210;DHT22;7188;56.070;12.698;2022-10-22T00:39:19;11.10;99.90
14210;DHT22;7188;56.070;12.698;2022-10-22T00:41:46;11.10;99.90
14210;DHT22;7188;56.070;12.698;2022-10-22T00:47:18;11.20;99.90
14210;DHT22;7188;56.070;12.698;2022-10-22T00:49:45;11.20;99.90
14210;DHT22;7188;56.070;12.698;2022-10-22T00:52:12;11.20;99.90
14210;DHT22;7188;56.070;12.698;2022-10-22T00:54:39;11.20;99.90
14210;DHT22;7188;56.070;12.698;2022-10-22T00:57:05;11.20;99.90
14210;DHT22;7188;56.070;12.698;2022-10-22T00:59:31;11.20;99.90
14210;DHT22;7188;56.070;12.698;2022-10-22T01:01:57;11.20;99.90
14210;DHT22;7188;56.070;12.698;2022-10-22T01:04:23;11.20;99.90
14210;DHT22;7188;56.070;12.698;2022-10-22T01:06:48;11.20;99.90
14210;DHT22;7188;56.070;12.698;2022-10-22T01:09:42;11.20;99.90
14210;DHT22;7188;56.070;12.698;2022-10-22T01:12:41;11.20;99.90
14210;DHT22;7188;56.070;12.698;2022-10-22T01:15:47;11.20;99.90
14210;DHT22;7188;56.070;12.698;2022-10-22T01:18:27;11.30;99.90
14210;DHT22;7188;56.070;12.698;2022-10-22T01:21:23;11.30;99.90
14210;DHT22;7188;56.070;12.698;2022-10-22T01:29:41;11.30;99.90
14210;DHT22;7188;56.070;12.698;2022-10-22T01:32:15;11.30;99.90
14210;DHT22;7188;56.070;12.698;2022-10-22T01:34:45;11.30;99.90
14210;DHT22;7188;56.070;12.698;2022-10-22T01:37:13;11.30;99.90
14210;DHT22;7188;56.070;12.698;2022-10-22T01:39:41;11.30;99.90
14210;DHT22;7188;56.070;12.698;2022-10-22T01:42:11;11.30;99.90
14210;DHT22;7188;56.070;12.698;2022-10-22T01:44:37;11.30;99.90
14210;DHT22;7188;56.070;12.698;2022-10-22T01:49:56;11.30;99.90
14210;DHT22;7188;56.070;12.698;2022-10-22T01:55:34;11.30;99.90
14210;DHT22;7188;56.070;12.698;2022-10-22T01:58:12;11.30;99.90
14210;DHT22;7188;56.070;12.698;2022-10-22T02:00:50;11.30;99.90
14210;DHT22;7188;56.070;12.698;2022-10-22T02:03:28;11.30;99.90
14210;DHT22;7188;56.070;12.698;2022-10-22T02:06:02;11.30;99.90
14210;DHT22;7188;56.070;12.698;2022-10-22T02:08:31;11.30;99.90
14210;DHT22;7188;56.070;12.698;2022-10-22T02:10:59;11.30;99.90
14210;DHT22;7188;56.070;12.698;2022-10-22T02:13:34;11.30;99.90
14210;DHT22;7188;56.070;12.698;2022-10-22T02:16:03;11.30;99.90
14210;DHT22;7188;56.070;12.698;2022-10-22T02:18:32;11.30;99.90
14210;DHT22;7188;56.070;12.698;2022-10-22T02:21:01;11.30;99.90
14210;DHT22;7188;56.070;12.698;2022-10-22T02:23:27;11.30;99.90
14210;DHT22;7188;56.070;12.698;2022-10-22T02:26:01;11.30;99.90
14210;DHT22;7188;56.070;12.698;2022-10-22T02:29:34;11.30;99.90
14210;DHT22;7188;56.070;12.698;2022-10-22T02:31:37;11.30;99.90
14210;DHT22;7188;56.070;12.698;2022-10-22T02:34:07;11.30;99.90
14210;DHT22;7188;56.070;12.698;2022-10-22T02:36:35;11.30;99.90
14210;DHT22;7188;56.070;12.698;2022-10-22T02:39:02;11.40;99.90
14210;DHT22;7188;56.070;12.698;2022-10-22T02:41:28;11.40;99.90
14210;DHT22;7188;56.070;12.698;2022-10-22T02:43:54;11.30;99.90
14210;DHT22;7188;56.070;12.698;2022-10-22T02:46:22;11.30;99.90
14210;DHT22;7188;56.070;12.698;2022-10-22T02:48:48;11.30;99.90
14210;DHT22;7188;56.070;12.698;2022-10-22T02:51:14;11.30;99.90
14210;DHT22;7188;56.070;12.698;2022-10-22T02:53:40;11.30;99.90
14210;DHT22;7188;56.070;12.698;2022-10-22T02:56:06;11.30;99.90
14210;DHT22;7188;56.070;12.698;2022-10-22T02:58:31;11.40;99.90
14210;DHT22;7188;56.070;12.698;2022-10-22T03:00:57;11.30;99.90
14210;DHT22;7188;56.070;12.698;2022-10-22T03:03:23;11.30;99.90
14210;DHT22;7188;56.070;12.698;2022-10-22T03:05:50;11.30;99.90
14210;DHT22;7188;56.070;12.698;2022-10-22T03:08:15;11.30;99.90
14210;DHT22;7188;56.070;12.698;2022-10-22T03:10:42;11.40;99.90
14210;DHT22;7188;56.070;12.698;2022-10-22T03:13:07;11.30;99.90
14210;DHT22;7188;56.070;12.698;2022-10-22T03:15:33;11.30;99.90
14210;DHT22;7188;56.070;12.698;2022-10-22T03:17:58;11.40;99.90
14210;DHT22;7188;56.070;12.698;2022-10-22T03:20:24;11.30;99.90
14210;DHT22;7188;56.070;12.698;2022-10-22T03:22:50;11.40;99.90
14210;DHT22;7188;56.070;12.698;2022-10-22T03:25:18;11.40;99.90
14210;DHT22;7188;56.070;12.698;2022-10-22T03:27:46;11.40;99.90
14210;DHT22;7188;56.070;12.698;2022-10-22T03:30:12;11.40;99.90
14210;DHT22;7188;56.070;12.698;2022-10-22T03:32:37;11.40;99.90
14210;DHT22;7188;56.070;12.698;2022-10-22T03:35:04;11.40;99.90
14210;DHT22;7188;56.070;12.698;2022-10-22T03:37:30;11.40;99.90
14210;DHT22;7188;56.070;12.698;2022-10-22T03:39:57;11.40;99.90
14210;DHT22;7188;56.070;12.698;2022-10-22T03:42:23;11.40;99.90
14210;DHT22;7188;56.070;12.698;2022-10-22T03:44:48;11.40;99.90
14210;DHT22;7188;56.070;12.698;2022-10-22T03:47:14;11.50;99.90
14210;DHT22;7188;56.070;12.698;2022-10-22T03:49:41;11.40;99.90
14210;DHT22;7188;56.070;12.698;2022-10-22T03:52:09;11.40;99.90
14210;DHT22;7188;56.070;12.698;2022-10-22T03:54:35;11.40;99.90
14210;DHT22;7188;56.070;12.698;2022-10-22T03:57:02;11.40;99.90
14210;DHT22;7188;56.070;12.698;2022-10-22T03:59:33;11.50;99.90
14210;DHT22;7188;56.070;12.698;2022-10-22T04:01:59;11.40;99.90
14210;DHT22;7188;56.070;12.698;2022-10-22T04:04:24;11.50;99.90
14210;DHT22;7188;56.070;12.698;2022-10-22T04:06:50;11.50;99.90
14210;DHT22;7188;56.070;12.698;2022-10-22T04:09:16;11.50;99.90
14210;DHT22;7188;56.070;12.698;2022-10-22T04:11:41;11.40;99.90
14210;DHT22;7188;56.070;12.698;2022-10-22T04:14:07;11.50;99.90
14210;DHT22;7188;56.070;12.698;2022-10-22T04:16:32;11.50;99.90
14210;DHT22;7188;56.070;12.698;2022-10-22T04:18:58;11.50;99.90
14210;DHT22;7188;56.070;12.698;2022-10-22T04:21:24;11.50;99.90
14210;DHT22;7188;56.070;12.698;2022-10-22T04:23:51;11.50;99.90
14210;DHT22;7188;56.070;12.698;2022-10-22T04:26:18;11.50;99.90
14210;DHT22;7188;56.070;12.698;2022-10-22T04:28:45;11.50;99.90
14210;DHT22;7188;56.070;12.698;2022-10-22T04:31:17;11.50;99.90
14210;DHT22;7188;56.070;12.698;2022-10-22T04:33:43;11.50;99.90
14210;DHT22;7188;56.070;12.698;2022-10-22T04:36:17;11.50;99.90
14210;DHT22;7188;56.070;12.698;2022-10-22T04:38:45;11.50;99.90
14210;DHT22;7188;56.070;12.698;2022-10-22T04:41:39;11.50;99.90
14210;DHT22;7188;56.070;12.698;2022-10-22T04:44:05;11.50;99.90
14210;DHT22;7188;56.070;12.698;2022-10-22T04:46:32;11.60;99.90
14210;DHT22;7188;56.070;12.698;2022-10-22T04:48:58;11.60;99.90
14210;DHT22;7188;56.070;12.698;2022-10-22T04:51:25;11.60;99.90
14210;DHT22;7188;56.070;12.698;2022-10-22T04:53:51;11.60;99.90
14210;DHT22;7188;56.070;12.698;2022-10-22T04:56:26;11.60;99.90
14210;DHT22;7188;56.070;12.698;2022-10-22T04:58:55;11.60;99.90
14210;DHT22;7188;56.070;12.698;2022-10-22T05:01:30;11.60;99.90
14210;DHT22;7188;56.070;12.698;2022-10-22T05:03:58;11.60;99.90
14210;DHT22;7188;56.070;12.698;2022-10-22T05:06:25;11.60;99.90
14210;DHT22;7188;56.070;12.698;2022-10-22T05:08:56;11.70;99.90
14210;DHT22;7188;56.070;12.698;2022-10-22T05:11:30;11.60;99.90
14210;DHT22;7188;56.070;12.698;2022-10-22T05:13:59;11.70;99.90
14210;DHT22;7188;56.070;12.698;2022-10-22T05:16:26;11.60;99.90
14210;DHT22;7188;56.070;12.698;2022-10-22T05:18:52;11.60;99.90
14210;DHT22;7188;56.070;12.698;2022-10-22T05:21:20;11.60;99.90
14210;DHT22;7188;56.070;12.698;2022-10-22T05:23:47;11.60;99.90
14210;DHT22;7188;56.070;12.698;2022-10-22T05:26:18;11.60;99.90
14210;DHT22;7188;56.070;12.698;2022-10-22T05:28:44;11.70;99.90
14210;DHT22;7188;56.070;12.698;2022-10-22T05:31:12;11.60;99.90
14210;DHT22;7188;56.070;12.698;2022-10-22T05:33:38;11.60;99.90
14210;DHT22;7188;56.070;12.698;2022-10-22T05:36:06;11.60;99.90
14210;DHT22;7188;56.070;12.698;2022-10-22T05:38:33;11.60;99.90
14210;DHT22;7188;56.070;12.698;2022-10-22T05:41:03;11.70;99.90
14210;DHT22;7188;56.070;12.698;2022-10-22T05:43:30;11.60;99.90
14210;DHT22;7188;56.070;12.698;2022-10-22T05:45:56;11.70;99.90
14210;DHT22;7188;56.070;12.698;2022-10-22T05:48:25;11.70;99.90
14210;DHT22;7188;56.070;12.698;2022-10-22T05:50:50;11.70;99.90
14210;DHT22;7188;56.070;12.698;2022-10-22T05:53:17;11.70;99.90
14210;DHT22;7188;56.070;12.698;2022-10-22T05:55:43;11.70;99.90
14210;DHT22;7188;56.070;12.698;2022-10-22T05:58:13;11.80;99.90
14210;DHT22;7188;56.070;12.698;2022-10-22T06:00:39;11.70;99.90
14210;DHT22;7188;56.070;12.698;2022-10-22T06:03:04;11.70;99.90
14210;DHT22;7188;56.070;12.698;2022-10-22T06:05:34;11.70;99.90
14210;DHT22;7188;56.070;12.698;2022-10-22T06:08:01;11.70;99.90
14210;DHT22;7188;56.070;12.698;2022-10-22T06:10:27;11.70;99.90
14210;DHT22;7188;56.070;12.698;2022-10-22T06:12:52;11.70;99.90
14210;DHT22;7188;56.070;12.698;2022-10-22T06:15:18;11.70;99.90
14210;DHT22;7188;56.070;12.698;2022-10-22T06:17:45;11.70;99.90
14210;DHT22;7188;56.070;12.698;2022-10-22T06:20:11;11.80;99.90
14210;DHT22;7188;56.070;12.698;2022-10-22T06:22:37;11.80;99.90
14210;DHT22;7188;56.070;12.698;2022-10-22T06:25:04;11.80;99.90
14210;DHT22;7188;56.070;12.698;2022-10-22T06:27:30;11.80;99.90
14210;DHT22;7188;56.070;12.698;2022-10-22T06:29:56;11.90;99.90
14210;DHT22;7188;56.070;12.698;2022-10-22T06:32:22;11.90;99.90
14210;DHT22;7188;56.070;12.698;2022-10-22T06:34:47;11.90;99.90
14210;DHT22;7188;56.070;12.698;2022-10-22T06:37:15;11.90;99.90
14210;DHT22;7188;56.070;12.698;2022-10-22T06:39:40;12.00;99.90
14210;DHT22;7188;56.070;12.698;2022-10-22T06:42:06;12.00;99.90
14210;DHT22;7188;56.070;12.698;2022-10-22T06:44:31;12.00;99.90
14210;DHT22;7188;56.070;12.698;2022-10-22T06:46:57;12.10;99.90
14210;DHT22;7188;56.070;12.698;2022-10-22T06:49:23;12.10;99.90
14210;DHT22;7188;56.070;12.698;2022-10-22T06:51:50;12.10;99.90
14210;DHT22;7188;56.070;12.698;2022-10-22T06:54:16;12.10;99.90
14210;DHT22;7188;56.070;12.698;2022-10-22T06:56:41;12.20;99.90
14210;DHT22;7188;56.070;12.698;2022-10-22T06:59:07;12.10;99.90
14210;DHT22;7188;56.070;12.698;2022-10-22T07:01:34;12.20;99.90
14210;DHT22;7188;56.070;12.698;2022-10-22T07:04:00;12.20;99.90
14210;DHT22;7188;56.070;12.698;2022-10-22T07:06:27;12.20;99.90
14210;DHT22;7188;56.070;12.698;2022-10-22T07:08:54;12.20;99.90
14210;DHT22;7188;56.070;12.698;2022-10-22T07:11:22;12.20;99.90
14210;DHT22;7188;56.070;12.698;2022-10-22T07:13:49;12.20;99.90
14210;DHT22;7188;56.070;12.698;2022-10-22T07:16:16;12.20;99.90
14210;DHT22;7188;56.070;12.698;2022-10-22T07:18:43;12.20;99.90
14210;DHT22;7188;56.070;12.698;2022-10-22T07:21:10;12.20;99.90
14210;DHT22;7188;56.070;12.698;2022-10-22T07:23:36;12.30;99.90
14210;DHT22;7188;56.070;12.698;2022-10-22T07:26:03;12.20;99.90
14210;DHT22;7188;56.070;12.698;2022-10-22T07:28:31;12.20;99.90
14210;DHT22;7188;56.070;12.698;2022-10-22T07:30:58;12.20;99.90
14210;DHT22;7188;56.070;12.698;2022-10-22T07:33:24;12.30;99.90
14210;DHT22;7188;56.070;12.698;2022-10-22T07:35:50;12.30;99.90
14210;DHT22;7188;56.070;12.698;2022-10-22T07:38:21;12.30;99.90
14210;DHT22;7188;56.070;12.698;2022-10-22T07:40:47;12.30;99.90
14210;DHT22;7188;56.070;12.698;2022-10-22T07:43:12;12.30;99.90
14210;DHT22;7188;56.070;12.698;2022-10-22T07:45:38;12.30;99.90
14210;DHT22;7188;56.070;12.698;2022-10-22T07:48:05;12.30;99.90
14210;DHT22;7188;56.070;12.698;2022-10-22T07:50:31;12.30;99.90
14210;DHT22;7188;56.070;12.698;2022-10-22T07:52:56;12.30;99.90
14210;DHT22;7188;56.070;12.698;2022-10-22T07:55:22;12.30;99.90
14210;DHT22;7188;56.070;12.698;2022-10-22T07:57:47;12.30;99.90
14210;DHT22;7188;56.070;12.698;2022-10-22T08:00:13;12.40;99.90
14210;DHT22;7188;56.070;12.698;2022-10-22T08:02:39;12.40;99.90
14210;DHT22;7188;56.070;12.698;2022-10-22T08:05:05;12.40;99.90
14210;DHT22;7188;56.070;12.698;2022-10-22T08:07:31;12.40;99.90
14210;DHT22;7188;56.070;12.698;2022-10-22T08:09:57;12.40;99.90
14210;DHT22;7188;56.070;12.698;2022-10-22T08:12:22;12.40;99.90
14210;DHT22;7188;56.070;12.698;2022-10-22T08:14:48;12.50;99.90
14210;DHT22;7188;56.070;12.698;2022-10-22T08:17:14;12.50;99.90
14210;DHT22;7188;56.070;12.698;2022-10-22T08:19:39;12.50;99.90
14210;DHT22;7188;56.070;12.698;2022-10-22T08:22:05;12.50;99.90
14210;DHT22;7188;56.070;12.698;2022-10-22T08:24:30;12.50;99.90
14210;DHT22;7188;56.070;12.698;2022-10-22T08:26:56;12.60;99.90
14210;DHT22;7188;56.070;12.698;2022-10-22T08:29:23;12.60;99.90
14210;DHT22;7188;56.070;12.698;2022-10-22T08:31:49;12.60;99.90
14210;DHT22;7188;56.070;12.698;2022-10-22T08:34:15;12.60;99.90
14210;DHT22;7188;56.070;12.698;2022-10-22T08:36:41;12.70;99.90
14210;DHT22;7188;56.070;12.698;2022-10-22T08:39:07;12.70;99.90
14210;DHT22;7188;56.070;12.698;2022-10-22T08:41:39;12.70;99.90
14210;DHT22;7188;56.070;12.698;2022-10-22T08:44:41;12.70;99.90
14210;DHT22;7188;56.070;12.698;2022-10-22T08:47:14;12.70;99.90
14210;DHT22;7188;56.070;12.698;2022-10-22T08:49:43;12.70;99.90
14210;DHT22;7188;56.070;12.698;2022-10-22T08:52:15;12.70;99.90
14210;DHT22;7188;56.070;12.698;2022-10-22T08:57:55;12.80;99.90
14210;DHT22;7188;56.070;12.698;2022-10-22T09:00:37;12.80;99.90
14210;DHT22;7188;56.070;12.698;2022-10-22T09:03:23;12.80;99.90
14210;DHT22;7188;56.070;12.698;2022-10-22T09:06:11;13.00;99.90
14210;DHT22;7188;56.070;12.698;2022-10-22T09:08:39;13.00;99.90
14210;DHT22;7188;56.070;12.698;2022-10-22T09:13:39;13.10;99.90
14210;DHT22;7188;56.070;12.698;2022-10-22T09:27:35;13.20;99.90
14210;DHT22;7188;56.070;12.698;2022-10-22T09:30:00;13.20;99.90
14210;DHT22;7188;56.070;12.698;2022-10-22T09:32:27;13.20;99.90
14210;DHT22;7188;56.070;12.698;2022-10-22T09:34:57;13.10;99.90
14210;DHT22;7188;56.070;12.698;2022-10-22T09:37:28;13.10;99.90
14210;DHT22;7188;56.070;12.698;2022-10-22T09:39:56;13.10;99.90
14210;DHT22;7188;56.070;12.698;2022-10-22T09:42:24;13.20;99.90
14210;DHT22;7188;56.070;12.698;2022-10-22T09:44:54;13.20;99.90
14210;DHT22;7188;56.070;12.698;2022-10-22T09:47:40;13.20;99.90
14210;DHT22;7188;56.070;12.698;2022-10-22T09:52:35;13.20;99.90
14210;DHT22;7188;56.070;12.698;2022-10-22T09:55:01;13.20;99.90
14210;DHT22;7188;56.070;12.698;2022-10-22T09:57:28;13.20;99.90
14210;DHT22;7188;56.070;12.698;2022-10-22T09:59:54;13.10;99.90
14210;DHT22;7188;56.070;12.698;2022-10-22T10:02:28;13.10;99.90
14210;DHT22;7188;56.070;12.698;2022-10-22T10:04:56;13.10;99.90
14210;DHT22;7188;56.070;12.698;2022-10-22T10:07:29;13.20;99.90
14210;DHT22;7188;56.070;12.698;2022-10-22T10:09:56;13.20;99.90
14210;DHT22;7188;56.070;12.698;2022-10-22T10:12:42;13.20;99.90
14210;DHT22;7188;56.070;12.698;2022-10-22T10:15:30;13.20;99.90
14210;DHT22;7188;56.070;12.698;2022-10-22T10:27:07;13.10;99.90
14210;DHT22;7188;56.070;12.698;2022-10-22T10:30:05;13.10;99.90
14210;DHT22;7188;56.070;12.698;2022-10-22T10:41:14;13.00;99.90
14210;DHT22;7188;56.070;12.698;2022-10-22T10:44:09;12.90;99.90
14210;DHT22;7188;56.070;12.698;2022-10-22T11:00:56;12.80;99.90
14210;DHT22;7188;56.070;12.698;2022-10-22T11:03:44;12.80;99.90
14210;DHT22;7188;56.070;12.698;2022-10-22T11:06:18;12.80;99.90
14210;DHT22;7188;56.070;12.698;2022-10-22T11:08:51;12.80;99.90
14210;DHT22;7188;56.070;12.698;2022-10-22T11:14:16;12.80;99.90
14210;DHT22;7188;56.070;12.698;2022-10-22T11:16:58;12.70;99.90
14210;DHT22;7188;56.070;12.698;2022-10-22T11:19:54;12.70;99.90
14210;DHT22;7188;56.070;12.698;2022-10-22T11:30:20;12.60;99.90
14210;DHT22;7188;56.070;12.698;2022-10-22T11:32:56;12.70;99.90
14210;DHT22;7188;56.070;12.698;2022-10-22T11:35:48;12.60;99.90
14210;DHT22;7188;56.070;12.698;2022-10-22T11:38:24;12.70;99.90
14210;DHT22;7188;56.070;12.698;2022-10-22T11:41:01;12.70;99.90
14210;DHT22;7188;56.070;12.698;2022-10-22T11:43:32;12.60;99.90
14210;DHT22;7188;56.070;12.698;2022-10-22T11:46:07;12.70;99.90
14210;DHT22;7188;56.070;12.698;2022-10-22T11:48:37;12.70;99.90
14210;DHT22;7188;56.070;12.698;2022-10-22T11:51:03;12.70;99.90
14210;DHT22;7188;56.070;12.698;2022-10-22T11:53:54;12.70;99.90
14210;DHT22;7188;56.070;12.698;2022-10-22T11:56:25;12.70;99.90
14210;DHT22;7188;56.070;12.698;2022-10-22T11:58:53;12.80;99.90
14210;DHT22;7188;56.070;12.698;2022-10-22T12:01:23;12.80;99.90
14210;DHT22;7188;56.070;12.698;2022-10-22T12:09:53;12.80;99.90
14210;DHT22;7188;56.070;12.698;2022-10-22T12:12:20;12.80;99.90
14210;DHT22;7188;56.070;12.698;2022-10-22T12:17:17;12.90;99.90
14210;DHT22;7188;56.070;12.698;2022-10-22T12:19:46;12.90;99.90
14210;DHT22;7188;56.070;12.698;2022-10-22T12:22:27;12.90;99.90
14210;DHT22;7188;56.070;12.698;2022-10-22T12:24:55;13.00;99.90
14210;DHT22;7188;56.070;12.698;2022-10-22T12:27:39;12.90;99.90
14210;DHT22;7188;56.070;12.698;2022-10-22T12:30:22;12.90;99.90
14210;DHT22;7188;56.070;12.698;2022-10-22T12:32:55;12.90;99.90
14210;DHT22;7188;56.070;12.698;2022-10-22T12:35:24;13.00;99.90
14210;DHT22;7188;56.070;12.698;2022-10-22T12:37:51;12.90;99.90
14210;DHT22;7188;56.070;12.698;2022-10-22T12:40:25;13.00;99.90
14210;DHT22;7188;56.070;12.698;2022-10-22T12:42:53;13.00;99.90
14210;DHT22;7188;56.070;12.698;2022-10-22T12:45:19;13.20;99.90
14210;DHT22;7188;56.070;12.698;2022-10-22T12:47:51;13.30;99.90
14210;DHT22;7188;56.070;12.698;2022-10-22T12:50:29;13.30;99.90
14210;DHT22;7188;56.070;12.698;2022-10-22T12:52:57;13.30;99.90
14210;DHT22;7188;56.070;12.698;2022-10-22T12:55:24;13.20;99.90
14210;DHT22;7188;56.070;12.698;2022-10-22T12:57:51;13.30;99.90
14210;DHT22;7188;56.070;12.698;2022-10-22T13:00:29;13.40;99.90
14210;DHT22;7188;56.070;12.698;2022-10-22T13:02:58;13.40;99.90
14210;DHT22;7188;56.070;12.698;2022-10-22T13:05:25;13.50;99.90
14210;DHT22;7188;56.070;12.698;2022-10-22T13:08:00;13.70;99.90
14210;DHT22;7188;56.070;12.698;2022-10-22T13:10:33;13.70;99.90
14210;DHT22;7188;56.070;12.698;2022-10-22T13:12:59;13.60;99.90
14210;DHT22;7188;56.070;12.698;2022-10-22T13:18:18;13.50;99.90
14210;DHT22;7188;56.070;12.698;2022-10-22T13:20:58;13.50;99.90
14210;DHT22;7188;56.070;12.698;2022-10-22T13:23:28;13.50;99.90
14210;DHT22;7188;56.070;12.698;2022-10-22T13:26:12;13.50;99.90
14210;DHT22;7188;56.070;12.698;2022-10-22T13:28:39;13.40;99.90
14210;DHT22;7188;56.070;12.698;2022-10-22T13:31:17;13.50;99.90
14210;DHT22;7188;56.070;12.698;2022-10-22T13:33:45;13.40;99.90
14210;DHT22;7188;56.070;12.698;2022-10-22T13:36:15;13.50;99.90
14210;DHT22;7188;56.070;12.698;2022-10-22T13:38:42;13.50;99.90
14210;DHT22;7188;56.070;12.698;2022-10-22T13:43:49;13.50;99.90
14210;DHT22;7188;56.070;12.698;2022-10-22T13:46:17;13.40;99.90
14210;DHT22;7188;56.070;12.698;2022-10-22T13:48:44;13.40;99.90
14210;DHT22;7188;56.070;12.698;2022-10-22T13:51:14;13.40;99.90
14210;DHT22;7188;56.070;12.698;2022-10-22T13:53:40;13.30;99.90
14210;DHT22;7188;56.070;12.698;2022-10-22T13:56:16;13.30;99.90
14210;DHT22;7188;56.070;12.698;2022-10-22T13:58:43;13.20;99.90
14210;DHT22;7188;56.070;12.698;2022-10-22T14:01:24;13.20;99.90
14210;DHT22;7188;56.070;12.698;2022-10-22T14:03:53;13.10;99.90
14210;DHT22;7188;56.070;12.698;2022-10-22T14:06:20;13.10;99.90
14210;DHT22;7188;56.070;12.698;2022-10-22T14:08:56;13.10;99.90
14210;DHT22;7188;56.070;12.698;2022-10-22T14:11:23;13.10;99.90
14210;DHT22;7188;56.070;12.698;2022-10-22T14:13:49;13.10;99.90
14210;DHT22;7188;56.070;12.698;2022-10-22T14:16:20;13.10;99.90
14210;DHT22;7188;56.070;12.698;2022-10-22T14:18:47;13.10;99.90
14210;DHT22;7188;56.070;12.698;2022-10-22T14:21:14;13.10;99.90
14210;DHT22;7188;56.070;12.698;2022-10-22T14:23:42;13.00;99.90
14210;DHT22;7188;56.070;12.698;2022-10-22T14:26:20;12.90;99.90
14210;DHT22;7188;56.070;12.698;2022-10-22T14:28:46;12.90;99.90
14210;DHT22;7188;56.070;12.698;2022-10-22T14:31:12;12.90;99.90
14210;DHT22;7188;56.070;12.698;2022-10-22T14:33:38;12.90;99.90
14210;DHT22;7188;56.070;12.698;2022-10-22T14:36:04;12.90;99.90
14210;DHT22;7188;56.070;12.698;2022-10-22T14:38:30;12.90;99.90
14210;DHT22;7188;56.070;12.698;2022-10-22T14:40:56;12.90;99.90
14210;DHT22;7188;56.070;12.698;2022-10-22T14:43:28;12.90;99.90
14210;DHT22;7188;56.070;12.698;2022-10-22T14:45:56;12.90;99.90
14210;DHT22;7188;56.070;12.698;2022-10-22T14:48:24;12.90;99.90
14210;DHT22;7188;56.070;12.698;2022-10-22T14:50:49;12.90;99.90
14210;DHT22;7188;56.070;12.698;2022-10-22T14:53:15;12.90;99.90
14210;DHT22;7188;56.070;12.698;2022-10-22T14:55:42;12.90;99.90
14210;DHT22;7188;56.070;12.698;2022-10-22T14:58:11;12.90;99.90
14210;DHT22;7188;56.070;12.698;2022-10-22T15:00:43;13.00;99.90
14210;DHT22;7188;56.070;12.698;2022-10-22T15:03:09;13.00;99.90
14210;DHT22;7188;56.070;12.698;2022-10-22T15:05:39;13.10;99.90
14210;DHT22;7188;56.070;12.698;2022-10-22T15:08:12;13.10;99.90
14210;DHT22;7188;56.070;12.698;2022-10-22T15:10:38;13.10;99.90
14210;DHT22;7188;56.070;12.698;2022-10-22T15:13:04;13.10;99.90
14210;DHT22;7188;56.070;12.698;2022-10-22T15:15:31;13.10;99.90
14210;DHT22;7188;56.070;12.698;2022-10-22T15:17:56;13.10;99.90
14210;DHT22;7188;56.070;12.698;2022-10-22T15:20:22;13.10;99.90
14210;DHT22;7188;56.070;12.698;2022-10-22T15:22:47;13.10;99.90
14210;DHT22;7188;56.070;12.698;2022-10-22T15:25:14;13.10;99.90
14210;DHT22;7188;56.070;12.698;2022-10-22T15:27:40;13.10;99.90
14210;DHT22;7188;56.070;12.698;2022-10-22T15:30:07;13.00;99.90
14210;DHT22;7188;56.070;12.698;2022-10-22T15:32:33;13.00;99.90
14210;DHT22;7188;56.070;12.698;2022-10-22T15:34:59;12.90;99.90
14210;DHT22;7188;56.070;12.698;2022-10-22T15:37:26;12.90;99.90
14210;DHT22;7188;56.070;12.698;2022-10-22T15:39:51;12.90;99.90
14210;DHT22;7188;56.070;12.698;2022-10-22T15:42:17;12.90;99.90
14210;DHT22;7188;56.070;12.698;2022-10-22T15:44:46;12.90;99.90
14210;DHT22;7188;56.070;12.698;2022-10-22T15:47:11;12.90;99.90
14210;DHT22;7188;56.070;12.698;2022-10-22T15:49:38;12.90;99.90
14210;DHT22;7188;56.070;12.698;2022-10-22T15:52:05;12.90;99.90
14210;DHT22;7188;56.070;12.698;2022-10-22T15:54:31;12.90;99.90
14210;DHT22;7188;56.070;12.698;2022-10-22T15:56:58;12.80;99.90
14210;DHT22;7188;56.070;12.698;2022-10-22T15:59:26;12.80;99.90
14210;DHT22;7188;56.070;12.698;2022-10-22T16:01:51;12.70;99.90
14210;DHT22;7188;56.070;12.698;2022-10-22T16:04:18;12.70;99.90
14210;DHT22;7188;56.070;12.698;2022-10-22T16:06:46;12.70;99.90
14210;DHT22;7188;56.070;12.698;2022-10-22T16:09:14;12.70;99.90
14210;DHT22;7188;56.070;12.698;2022-10-22T16:11:54;12.70;99.90
14210;DHT22;7188;56.070;12.698;2022-10-22T16:14:20;12.70;99.90
14210;DHT22;7188;56.070;12.698;2022-10-22T16:16:50;12.60;99.90
14210;DHT22;7188;56.070;12.698;2022-10-22T16:19:18;12.60;99.90
14210;DHT22;7188;56.070;12.698;2022-10-22T16:21:44;12.60;99.90
14210;DHT22;7188;56.070;12.698;2022-10-22T16:24:10;12.50;99.90
14210;DHT22;7188;56.070;12.698;2022-10-22T16:26:36;12.50;99.90
14210;DHT22;7188;56.070;12.698;2022-10-22T16:29:04;12.50;99.90
14210;DHT22;7188;56.070;12.698;2022-10-22T16:31:42;12.50;99.90
14210;DHT22;7188;56.070;12.698;2022-10-22T16:34:08;12.50;99.90
14210;DHT22;7188;56.070;12.698;2022-10-22T16:36:34;12.50;99.90
14210;DHT22;7188;56.070;12.698;2022-10-22T16:39:01;12.50;99.90
14210;DHT22;7188;56.070;12.698;2022-10-22T16:41:27;12.50;99.90
14210;DHT22;7188;56.070;12.698;2022-10-22T16:44:00;12.50;99.90
14210;DHT22;7188;56.070;12.698;2022-10-22T16:46:29;12.50;99.90
14210;DHT22;7188;56.070;12.698;2022-10-22T16:48:55;12.50;99.90
14210;DHT22;7188;56.070;12.698;2022-10-22T16:51:23;12.50;99.90
14210;DHT22;7188;56.070;12.698;2022-10-22T16:53:52;12.50;99.90
14210;DHT22;7188;56.070;12.698;2022-10-22T16:56:19;12.50;99.90
14210;DHT22;7188;56.070;12.698;2022-10-22T16:58:47;12.50;99.90
14210;DHT22;7188;56.070;12.698;2022-10-22T17:01:14;12.50;99.90
14210;DHT22;7188;56.070;12.698;2022-10-22T17:03:40;12.50;99.90
14210;DHT22;7188;56.070;12.698;2022-10-22T17:06:06;12.50;99.90
14210;DHT22;7188;56.070;12.698;2022-10-22T17:08:36;12.50;99.90
14210;DHT22;7188;56.070;12.698;2022-10-22T17:11:09;12.50;99.90
14210;DHT22;7188;56.070;12.698;2022-10-22T17:13:35;12.40;99.90